Hampton, VA (23666)

6:26 PM EDT on August 30, 2014 (GMT -0400)
Northampton | Change Station
CLOSE
Current Station
Personal Weather Station
Location: Hampton, VA
Elevation: 23 ft
Nearby Weather Stations

Elev 23 ft 37.05 °N, 76.42 °W | Updated 10 minutes ago

Clear
Clear
88.7 °F
Feels Like 104 °F
N
2.2
Wind Variable Wind from South
Gusts 3.8 mph

Today
High -- | Low -- °F
--% Chance of Precip.
Yesterday
High -- | Low -- °F
Precip. -- in
6:34 AM 7:37 PM
Waxing Crescent, 25% visible
Pressure 30.16 in
Visibility 10.0 miles
Clouds Clear
Heat Index 104 °F
Dew Point 79 °F
Humidity 73%
Rainfall 0.00 in
Snow Depth Not available.
UV 1 out of 12
Pollen 8.90 out of 12
Ozone Good
PM2.5 Good
Flu Activity Not available.
METAR KLFI 302158Z AUTO 14008KT 10SM CLR 29/23 A3014 RMK AO2 SLP213 T02850233 $

More Conditions Fewer Conditions

Pressure 30.16 in
Visibility 10.0 miles
Clouds Clear
Heat Index 104 °F
Dew Point 79 °F
Humidity 73%
Rainfall 0.00 in
Snow Depth Not available.
UV 1 out of 12
Pollen 8.90 out of 12
Ozone Good
PM2.5 Good
Flu Activity Not available.
METAR KLFI 302158Z AUTO 14008KT 10SM CLR 29/23 A3014 RMK AO2 SLP213 T02850233 $

More Conditions Fewer Conditions

10-Day Weather Forecast

Almanac

Astronomy

Aug. 30, 2014 Rise Set
Actual Time 6:34 AM EDT 7:37 PM EDT
Civil Twilight 6:08 AM EDT 8:03 PM EDT
Nautical Twilight 5:36 AM EDT 8:35 PM EDT
Astronomical Twilight 5:03 AM EDT 9:08 PM EDT
Moon 11:12 AM EDT 10:17 PM EDT
Length of Visible Light 13h 55m
Length of Day
13h 02m
Tomorrow will be 2m 16s shorter.
Waxing Crescent, 25% of the Moon is Illuminated
Today
Waxing Crescent
Sep 2
First Quarter
Sep 8
Full
Sep 15
Last Quarter
Sep 24
New

Today's Extremes

State Highs State Lows

Community

WunderPhotos

Upload Photos

1,748,657 photos uploaded!

WunderBlogs® & News

Nearby

Air Quality

  Air Quality AQ Index Pollutant
Yesterday Good
OZONE
Yesterday Good
PM2.5
Current Good
PM2.5
Current Good
OZONE
Saturday Good
OZONE
Saturday Good
PM2.5
Sunday Good
OZONE
Sunday Good
PM2.5
Monday Good
OZONE
Monday Good
PM2.5
Tuesday Good
PM2.5
Tuesday Good
OZONE

Snow Depth

Station Depth Elevation
No new snow has been reported.

Earthquake Activity

City Distance Mag. Time & Date
No recent earthquake activity has been reported nearby.
Minimum magnitude displayed is 2.5.

Coastal Water Temperatures

Place Temperature
No Stations Reporting

Nearby Weather Stations